sensor_id;sensor_type;location;lat;lon;timestamp;pressure;altitude;pressure_sealevel;temperature;humidity
59650;BME280;46162;57.568;25.814;2023-02-02T00:01:31;98870.75;;;-0.36;100.00
59650;BME280;46162;57.568;25.814;2023-02-02T00:04:00;98866.31;;;-0.47;100.00
59650;BME280;46162;57.568;25.814;2023-02-02T00:06:30;98875.00;;;-0.45;100.00
59650;BME280;46162;57.568;25.814;2023-02-02T00:09:00;98879.84;;;-0.50;100.00
59650;BME280;46162;57.568;25.814;2023-02-02T00:11:29;98872.06;;;-0.31;100.00
59650;BME280;46162;57.568;25.814;2023-02-02T00:13:58;98887.03;;;-0.41;100.00
59650;BME280;46162;57.568;25.814;2023-02-02T00:16:39;98883.38;;;-0.61;100.00
59650;BME280;46162;57.568;25.814;2023-02-02T00:19:12;98888.41;;;-0.47;100.00
59650;BME280;46162;57.568;25.814;2023-02-02T00:21:41;98881.75;;;-0.52;100.00
59650;BME280;46162;57.568;25.814;2023-02-02T00:24:11;98884.09;;;-0.59;100.00
59650;BME280;46162;57.568;25.814;2023-02-02T00:26:43;98883.59;;;-0.53;100.00
59650;BME280;46162;57.568;25.814;2023-02-02T00:29:14;98873.41;;;-0.36;100.00
59650;BME280;46162;57.568;25.814;2023-02-02T00:31:45;98878.34;;;-0.32;100.00
59650;BME280;46162;57.568;25.814;2023-02-02T00:34:15;98880.25;;;-0.34;100.00
59650;BME280;46162;57.568;25.814;2023-02-02T00:36:46;98885.84;;;-0.37;100.00
59650;BME280;46162;57.568;25.814;2023-02-02T00:39:17;98879.03;;;-0.30;100.00
59650;BME280;46162;57.568;25.814;2023-02-02T00:41:46;98877.47;;;-0.32;100.00
59650;BME280;46162;57.568;25.814;2023-02-02T00:44:15;98881.56;;;-0.28;100.00
59650;BME280;46162;57.568;25.814;2023-02-02T00:47:03;98879.38;;;-0.23;100.00
59650;BME280;46162;57.568;25.814;2023-02-02T00:49:32;98878.00;;;-0.17;100.00
59650;BME280;46162;57.568;25.814;2023-02-02T00:52:01;98875.34;;;-0.17;100.00
59650;BME280;46162;57.568;25.814;2023-02-02T00:54:30;98881.38;;;-0.15;100.00
59650;BME280;46162;57.568;25.814;2023-02-02T00:56:58;98879.63;;;-0.26;100.00
59650;BME280;46162;57.568;25.814;2023-02-02T00:59:27;98891.44;;;-0.30;100.00
59650;BME280;46162;57.568;25.814;2023-02-02T01:01:55;98884.56;;;-0.22;100.00
59650;BME280;46162;57.568;25.814;2023-02-02T01:04:27;98885.50;;;-0.23;100.00
59650;BME280;46162;57.568;25.814;2023-02-02T01:06:56;98885.38;;;-0.21;100.00
59650;BME280;46162;57.568;25.814;2023-02-02T01:09:24;98883.31;;;-0.17;100.00
59650;BME280;46162;57.568;25.814;2023-02-02T01:11:53;98889.41;;;-0.27;100.00
59650;BME280;46162;57.568;25.814;2023-02-02T01:14:24;98895.44;;;-0.25;100.00
59650;BME280;46162;57.568;25.814;2023-02-02T01:16:54;98881.75;;;-0.20;100.00
59650;BME280;46162;57.568;25.814;2023-02-02T01:19:26;98895.63;;;-0.16;100.00
59650;BME280;46162;57.568;25.814;2023-02-02T01:21:55;98887.78;;;-0.18;100.00
59650;BME280;46162;57.568;25.814;2023-02-02T01:24:24;98885.84;;;-0.16;100.00
59650;BME280;46162;57.568;25.814;2023-02-02T01:26:52;98886.94;;;-0.18;100.00
59650;BME280;46162;57.568;25.814;2023-02-02T01:29:21;98884.28;;;-0.18;100.00
59650;BME280;46162;57.568;25.814;2023-02-02T01:31:50;98886.38;;;-0.22;100.00
59650;BME280;46162;57.568;25.814;2023-02-02T01:34:18;98893.34;;;-0.21;100.00
59650;BME280;46162;57.568;25.814;2023-02-02T01:36:48;98888.03;;;-0.21;100.00
59650;BME280;46162;57.568;25.814;2023-02-02T01:39:18;98888.03;;;-0.21;100.00
59650;BME280;46162;57.568;25.814;2023-02-02T01:41:47;98891.06;;;-0.26;100.00
59650;BME280;46162;57.568;25.814;2023-02-02T01:47:24;98907.38;;;-0.74;100.00
59650;BME280;46162;57.568;25.814;2023-02-02T01:49:55;98899.22;;;-0.93;100.00
59650;BME280;46162;57.568;25.814;2023-02-02T01:52:26;98909.00;;;-0.94;100.00
59650;BME280;46162;57.568;25.814;2023-02-02T01:54:59;98909.09;;;-0.95;100.00
59650;BME280;46162;57.568;25.814;2023-02-02T01:57:36;98904.16;;;-0.89;100.00
59650;BME280;46162;57.568;25.814;2023-02-02T02:00:09;98902.34;;;-0.99;100.00
59650;BME280;46162;57.568;25.814;2023-02-02T02:02:45;98909.09;;;-0.95;100.00
59650;BME280;46162;57.568;25.814;2023-02-02T02:05:24;98907.44;;;-1.08;100.00
59650;BME280;46162;57.568;25.814;2023-02-02T02:07:59;98912.72;;;-0.96;100.00
59650;BME280;46162;57.568;25.814;2023-02-02T02:10:30;98910.19;;;-0.98;100.00
59650;BME280;46162;57.568;25.814;2023-02-02T02:12:59;98918.97;;;-0.97;100.00
59650;BME280;46162;57.568;25.814;2023-02-02T02:15:29;98913.31;;;-0.93;100.00
59650;BME280;46162;57.568;25.814;2023-02-02T02:18:27;98924.28;;;-1.09;100.00
59650;BME280;46162;57.568;25.814;2023-02-02T02:24:45;98923.81;;;-1.14;100.00
59650;BME280;46162;57.568;25.814;2023-02-02T02:28:10;98923.56;;;-1.11;100.00
59650;BME280;46162;57.568;25.814;2023-02-02T02:30:54;98932.47;;;-1.12;100.00
59650;BME280;46162;57.568;25.814;2023-02-02T02:33:30;98933.44;;;-1.13;100.00
59650;BME280;46162;57.568;25.814;2023-02-02T02:36:07;98936.22;;;-1.25;100.00
59650;BME280;46162;57.568;25.814;2023-02-02T02:38:47;98931.28;;;-1.30;100.00
59650;BME280;46162;57.568;25.814;2023-02-02T02:41:20;98935.47;;;-1.27;100.00
59650;BME280;46162;57.568;25.814;2023-02-02T02:43:53;98944.97;;;-1.36;100.00
59650;BME280;46162;57.568;25.814;2023-02-02T02:46:24;98941.25;;;-1.34;100.00
59650;BME280;46162;57.568;25.814;2023-02-02T02:48:57;98940.91;;;-1.40;100.00
59650;BME280;46162;57.568;25.814;2023-02-02T02:51:48;98948.69;;;-1.39;100.00
59650;BME280;46162;57.568;25.814;2023-02-02T02:54:37;98951.00;;;-1.34;100.00
59650;BME280;46162;57.568;25.814;2023-02-02T02:57:19;98946.19;;;-1.29;100.00
59650;BME280;46162;57.568;25.814;2023-02-02T02:59:57;98954.38;;;-1.32;100.00
59650;BME280;46162;57.568;25.814;2023-02-02T03:02:37;98947.13;;;-1.41;100.00
59650;BME280;46162;57.568;25.814;2023-02-02T03:05:19;98950.41;;;-1.38;100.00
59650;BME280;46162;57.568;25.814;2023-02-02T03:07:59;98957.50;;;-1.38;100.00
59650;BME280;46162;57.568;25.814;2023-02-02T03:10:31;98959.16;;;-1.48;100.00
59650;BME280;46162;57.568;25.814;2023-02-02T03:13:06;98959.38;;;-1.52;100.00
59650;BME280;46162;57.568;25.814;2023-02-02T03:15:36;98954.34;;;-1.55;100.00
59650;BME280;46162;57.568;25.814;2023-02-02T03:18:04;98956.50;;;-1.60;100.00
59650;BME280;46162;57.568;25.814;2023-02-02T03:20:34;98956.50;;;-1.60;100.00
59650;BME280;46162;57.568;25.814;2023-02-02T03:23:03;98959.75;;;-1.56;100.00
59650;BME280;46162;57.568;25.814;2023-02-02T03:25:32;98958.78;;;-1.55;100.00
59650;BME280;46162;57.568;25.814;2023-02-02T03:28:02;98966.75;;;-1.55;100.00
59650;BME280;46162;57.568;25.814;2023-02-02T03:30:31;98972.88;;;-1.55;100.00
59650;BME280;46162;57.568;25.814;2023-02-02T03:33:00;98975.50;;;-1.55;100.00
59650;BME280;46162;57.568;25.814;2023-02-02T03:35:29;98976.34;;;-1.54;100.00
59650;BME280;46162;57.568;25.814;2023-02-02T03:37:59;98976.09;;;-1.51;100.00
59650;BME280;46162;57.568;25.814;2023-02-02T03:40:28;98973.94;;;-1.57;100.00
59650;BME280;46162;57.568;25.814;2023-02-02T03:42:57;98972.97;;;-1.56;100.00
59650;BME280;46162;57.568;25.814;2023-02-02T03:45:26;98982.84;;;-1.58;100.00
59650;BME280;46162;57.568;25.814;2023-02-02T03:47:55;98982.00;;;-1.59;100.00
59650;BME280;46162;57.568;25.814;2023-02-02T03:50:23;98984.03;;;-1.62;100.00
59650;BME280;46162;57.568;25.814;2023-02-02T03:52:52;98983.91;;;-1.61;100.00
59650;BME280;46162;57.568;25.814;2023-02-02T03:55:23;98983.22;;;-1.63;100.00
59650;BME280;46162;57.568;25.814;2023-02-02T03:57:52;98979.00;;;-1.65;100.00
59650;BME280;46162;57.568;25.814;2023-02-02T04:00:21;98985.94;;;-1.64;100.00
59650;BME280;46162;57.568;25.814;2023-02-02T04:02:49;98988.50;;;-1.63;100.00
59650;BME280;46162;57.568;25.814;2023-02-02T04:05:18;98991.84;;;-1.61;100.00
59650;BME280;46162;57.568;25.814;2023-02-02T04:07:46;98982.47;;;-1.54;100.00
59650;BME280;46162;57.568;25.814;2023-02-02T04:10:16;98988.16;;;-1.58;100.00
59650;BME280;46162;57.568;25.814;2023-02-02T04:12:46;98994.63;;;-1.51;100.00
59650;BME280;46162;57.568;25.814;2023-02-02T04:15:15;98999.81;;;-1.49;100.00
59650;BME280;46162;57.568;25.814;2023-02-02T04:17:43;99001.50;;;-1.48;100.00
59650;BME280;46162;57.568;25.814;2023-02-02T04:20:12;99004.38;;;-1.52;100.00
59650;BME280;46162;57.568;25.814;2023-02-02T04:22:40;99002.56;;;-1.51;100.00
59650;BME280;46162;57.568;25.814;2023-02-02T04:25:09;99001.13;;;-1.55;100.00
59650;BME280;46162;57.568;25.814;2023-02-02T04:27:38;99003.19;;;-1.47;100.00
59650;BME280;46162;57.568;25.814;2023-02-02T04:30:10;99006.53;;;-1.57;100.00
59650;BME280;46162;57.568;25.814;2023-02-02T04:32:38;99001.97;;;-1.55;100.00
59650;BME280;46162;57.568;25.814;2023-02-02T04:35:07;99012.81;;;-1.58;100.00
59650;BME280;46162;57.568;25.814;2023-02-02T04:37:36;99000.50;;;-1.59;100.00
59650;BME280;46162;57.568;25.814;2023-02-02T04:40:06;99003.91;;;-1.57;100.00
59650;BME280;46162;57.568;25.814;2023-02-02T04:42:34;99001.13;;;-1.55;100.00
59650;BME280;46162;57.568;25.814;2023-02-02T04:45:04;99009.22;;;-1.45;100.00
59650;BME280;46162;57.568;25.814;2023-02-02T04:47:34;99008.94;;;-1.54;100.00
59650;BME280;46162;57.568;25.814;2023-02-02T04:50:03;99008.25;;;-1.56;100.00
59650;BME280;46162;57.568;25.814;2023-02-02T04:52:32;99017.84;;;-1.55;100.00
59650;BME280;46162;57.568;25.814;2023-02-02T04:55:01;99016.41;;;-1.59;100.00
59650;BME280;46162;57.568;25.814;2023-02-02T04:57:30;99026.78;;;-1.56;100.00
59650;BME280;46162;57.568;25.814;2023-02-02T04:59:58;99021.69;;;-1.59;100.00
59650;BME280;46162;57.568;25.814;2023-02-02T05:02:27;99025.69;;;-1.53;100.00
59650;BME280;46162;57.568;25.814;2023-02-02T05:04:57;99032.41;;;-1.49;100.00
59650;BME280;46162;57.568;25.814;2023-02-02T05:07:25;99034.47;;;-1.53;100.00
59650;BME280;46162;57.568;25.814;2023-02-02T05:09:54;99029.53;;;-1.57;100.00
59650;BME280;46162;57.568;25.814;2023-02-02T05:12:22;99030.00;;;-1.52;100.00
59650;BME280;46162;57.568;25.814;2023-02-02T05:14:51;99030.13;;;-1.54;100.00
59650;BME280;46162;57.568;25.814;2023-02-02T05:17:19;99042.19;;;-1.49;100.00
59650;BME280;46162;57.568;25.814;2023-02-02T05:19:48;99040.13;;;-1.46;100.00
59650;BME280;46162;57.568;25.814;2023-02-02T05:22:18;99042.66;;;-1.44;100.00
59650;BME280;46162;57.568;25.814;2023-02-02T05:24:46;99044.38;;;-1.32;100.00
59650;BME280;46162;57.568;25.814;2023-02-02T05:27:15;99048.75;;;-1.31;100.00
59650;BME280;46162;57.568;25.814;2023-02-02T05:29:45;99045.47;;;-1.35;100.00
59650;BME280;46162;57.568;25.814;2023-02-02T05:32:14;99050.25;;;-1.40;100.00
59650;BME280;46162;57.568;25.814;2023-02-02T05:34:43;99054.81;;;-1.42;100.00
59650;BME280;46162;57.568;25.814;2023-02-02T05:37:11;99060.75;;;-1.38;100.00
59650;BME280;46162;57.568;25.814;2023-02-02T05:39:41;99061.59;;;-1.38;100.00
59650;BME280;46162;57.568;25.814;2023-02-02T05:42:10;99066.72;;;-1.47;100.00
59650;BME280;46162;57.568;25.814;2023-02-02T05:44:38;99072.41;;;-1.41;100.00
59650;BME280;46162;57.568;25.814;2023-02-02T05:47:08;99066.00;;;-1.49;100.00
59650;BME280;46162;57.568;25.814;2023-02-02T05:49:36;99074.66;;;-1.47;100.00
59650;BME280;46162;57.568;25.814;2023-02-02T05:52:05;99069.72;;;-1.52;100.00
59650;BME280;46162;57.568;25.814;2023-02-02T05:54:35;99075.34;;;-1.57;100.00
59650;BME280;46162;57.568;25.814;2023-02-02T05:57:05;99082.13;;;-1.53;100.00
59650;BME280;46162;57.568;25.814;2023-02-02T05:59:33;99079.34;;;-1.51;100.00
59650;BME280;46162;57.568;25.814;2023-02-02T06:02:02;99089.31;;;-1.55;100.00
59650;BME280;46162;57.568;25.814;2023-02-02T06:04:30;99091.00;;;-1.54;100.00
59650;BME280;46162;57.568;25.814;2023-02-02T06:06:59;99091.84;;;-1.53;100.00
59650;BME280;46162;57.568;25.814;2023-02-02T06:09:28;99098.00;;;-1.53;100.00
59650;BME280;46162;57.568;25.814;2023-02-02T06:11:56;99093.88;;;-1.57;100.00
59650;BME280;46162;57.568;25.814;2023-02-02T06:14:26;99102.56;;;-1.55;100.00
59650;BME280;46162;57.568;25.814;2023-02-02T06:16:55;99113.03;;;-1.53;100.00
59650;BME280;46162;57.568;25.814;2023-02-02T06:19:24;99118.44;;;-1.55;100.00
59650;BME280;46162;57.568;25.814;2023-02-02T06:21:52;99111.56;;;-1.57;100.00
59650;BME280;46162;57.568;25.814;2023-02-02T06:24:21;99117.09;;;-1.60;100.00
59650;BME280;46162;57.568;25.814;2023-02-02T06:26:50;99111.06;;;-1.62;100.00
59650;BME280;46162;57.568;25.814;2023-02-02T06:29:19;99115.88;;;-1.56;100.00
59650;BME280;46162;57.568;25.814;2023-02-02T06:31:49;99113.56;;;-1.61;100.00
59650;BME280;46162;57.568;25.814;2023-02-02T06:34:18;99122.47;;;-1.62;100.00
59650;BME280;46162;57.568;25.814;2023-02-02T06:36:46;99128.63;;;-1.61;100.00
59650;BME280;46162;57.568;25.814;2023-02-02T06:39:15;99119.09;;;-1.64;100.00
59650;BME280;46162;57.568;25.814;2023-02-02T06:41:43;99121.50;;;-1.61;100.00
59650;BME280;46162;57.568;25.814;2023-02-02T06:44:14;99123.31;;;-1.61;100.00
59650;BME280;46162;57.568;25.814;2023-02-02T06:46:42;99122.38;;;-1.60;100.00
59650;BME280;46162;57.568;25.814;2023-02-02T06:49:12;99130.94;;;-1.57;100.00
59650;BME280;46162;57.568;25.814;2023-02-02T06:51:43;99128.03;;;-1.54;100.00
59650;BME280;46162;57.568;25.814;2023-02-02T06:54:11;99127.72;;;-1.49;100.00
59650;BME280;46162;57.568;25.814;2023-02-02T06:56:41;99134.72;;;-1.48;100.00
59650;BME280;46162;57.568;25.814;2023-02-02T06:59:09;99142.59;;;-1.35;100.00
59650;BME280;46162;57.568;25.814;2023-02-02T07:01:38;99136.47;;;-1.24;100.00
59650;BME280;46162;57.568;25.814;2023-02-02T07:04:06;99147.31;;;-1.27;100.00
59650;BME280;46162;57.568;25.814;2023-02-02T07:06:38;99139.47;;;-1.29;100.00
59650;BME280;46162;57.568;25.814;2023-02-02T07:09:07;99149.59;;;-1.23;100.00
59650;BME280;46162;57.568;25.814;2023-02-02T07:11:35;99151.75;;;-1.28;100.00
59650;BME280;46162;57.568;25.814;2023-02-02T07:14:09;99149.03;;;-1.04;100.00
59650;BME280;46162;57.568;25.814;2023-02-02T07:16:37;99147.69;;;-1.21;100.00
59650;BME280;46162;57.568;25.814;2023-02-02T07:19:06;99155.94;;;-1.01;100.00
59650;BME280;46162;57.568;25.814;2023-02-02T07:21:36;99165.66;;;-1.13;100.00
59650;BME280;46162;57.568;25.814;2023-02-02T07:24:06;99165.91;;;-1.16;100.00
59650;BME280;46162;57.568;25.814;2023-02-02T07:26:34;99172.88;;;-1.15;100.00
59650;BME280;46162;57.568;25.814;2023-02-02T07:29:03;99174.19;;;-1.21;100.00
59650;BME280;46162;57.568;25.814;2023-02-02T07:31:32;99168.38;;;-1.26;100.00
59650;BME280;46162;57.568;25.814;2023-02-02T07:34:03;99174.44;;;-1.13;100.00
59650;BME280;46162;57.568;25.814;2023-02-02T07:36:31;99173.72;;;-1.15;100.00
59650;BME280;46162;57.568;25.814;2023-02-02T07:39:03;99180.72;;;-1.14;100.00
59650;BME280;46162;57.568;25.814;2023-02-02T07:41:33;99180.72;;;-1.14;100.00
59650;BME280;46162;57.568;25.814;2023-02-02T07:44:03;99190.84;;;-1.08;100.00
59650;BME280;46162;57.568;25.814;2023-02-02T07:46:32;99191.06;;;-1.11;100.00
59650;BME280;46162;57.568;25.814;2023-02-02T07:49:01;99197.59;;;-1.03;100.00
59650;BME280;46162;57.568;25.814;2023-02-02T07:51:30;99194.38;;;-0.96;100.00
59650;BME280;46162;57.568;25.814;2023-02-02T07:53:59;99196.63;;;-1.02;100.00
59650;BME280;46162;57.568;25.814;2023-02-02T07:56:29;99199.34;;;-1.15;100.00
59650;BME280;46162;57.568;25.814;2023-02-02T07:58:57;99194.88;;;-1.15;100.00
59650;BME280;46162;57.568;25.814;2023-02-02T08:01:27;99191.31;;;-1.14;100.00
59650;BME280;46162;57.568;25.814;2023-02-02T08:03:58;99205.63;;;-1.16;100.00
59650;BME280;46162;57.568;25.814;2023-02-02T08:06:29;99210.53;;;-1.12;100.00
59650;BME280;46162;57.568;25.814;2023-02-02T08:08:59;99212.34;;;-1.12;100.00
59650;BME280;46162;57.568;25.814;2023-02-02T08:11:30;99206.81;;;-1.09;100.00
59650;BME280;46162;57.568;25.814;2023-02-02T08:13:59;99207.28;;;-1.15;100.00
59650;BME280;46162;57.568;25.814;2023-02-02T08:16:30;99213.56;;;-1.16;100.00
59650;BME280;46162;57.568;25.814;2023-02-02T08:18:59;99214.41;;;-1.16;100.00
59650;BME280;46162;57.568;25.814;2023-02-02T08:21:28;99225.16;;;-1.06;100.00
59650;BME280;46162;57.568;25.814;2023-02-02T08:23:59;99221.19;;;-1.00;100.00
59650;BME280;46162;57.568;25.814;2023-02-02T08:26:32;99230.81;;;-0.99;100.00
59650;BME280;46162;57.568;25.814;2023-02-02T08:29:04;99231.06;;;-1.02;100.00
59650;BME280;46162;57.568;25.814;2023-02-02T08:31:34;99238.56;;;-0.96;100.00
59650;BME280;46162;57.568;25.814;2023-02-02T08:34:04;99225.53;;;-0.99;100.00
59650;BME280;46162;57.568;25.814;2023-02-02T08:36:33;99237.34;;;-1.03;100.00
59650;BME280;46162;57.568;25.814;2023-02-02T08:39:04;99235.22;;;-0.87;100.00
59650;BME280;46162;57.568;25.814;2023-02-02T08:41:34;99242.16;;;-0.97;100.00
59650;BME280;46162;57.568;25.814;2023-02-02T08:44:04;99242.47;;;-0.78;100.00
59650;BME280;46162;57.568;25.814;2023-02-02T08:46:37;99246.09;;;-0.79;100.00
59650;BME280;46162;57.568;25.814;2023-02-02T08:49:06;99254.25;;;-0.82;100.00
59650;BME280;46162;57.568;25.814;2023-02-02T08:51:37;99263.19;;;-0.83;100.00
59650;BME280;46162;57.568;25.814;2023-02-02T08:54:05;99264.59;;;-0.90;100.00
59650;BME280;46162;57.568;25.814;2023-02-02T08:56:35;99267.50;;;-0.82;100.00
59650;BME280;46162;57.568;25.814;2023-02-02T08:59:04;99273.00;;;-0.96;100.00
59650;BME280;46162;57.568;25.814;2023-02-02T09:01:34;99268.25;;;-1.04;100.00
59650;BME280;46162;57.568;25.814;2023-02-02T09:04:04;99272.78;;;-0.93;100.00
59650;BME280;46162;57.568;25.814;2023-02-02T09:06:34;99274.22;;;-0.89;100.00
59650;BME280;46162;57.568;25.814;2023-02-02T09:09:04;99285.34;;;-0.84;100.00
59650;BME280;46162;57.568;25.814;2023-02-02T09:11:35;99286.06;;;-0.82;100.00
59650;BME280;46162;57.568;25.814;2023-02-02T09:14:04;99288.00;;;-0.84;100.00
59650;BME280;46162;57.568;25.814;2023-02-02T09:16:34;99288.84;;;-0.83;100.00
59650;BME280;46162;57.568;25.814;2023-02-02T09:19:03;99294.31;;;-0.74;100.00
59650;BME280;46162;57.568;25.814;2023-02-02T09:21:32;99293.25;;;-0.60;100.00
59650;BME280;46162;57.568;25.814;2023-02-02T09:24:08;99301.34;;;-0.61;100.00
59650;BME280;46162;57.568;25.814;2023-02-02T09:26:39;99294.91;;;-0.70;100.00
59650;BME280;46162;57.568;25.814;2023-02-02T09:29:11;99304.78;;;-0.72;100.00
59650;BME280;46162;57.568;25.814;2023-02-02T09:31:40;99305.50;;;-0.70;100.00
59650;BME280;46162;57.568;25.814;2023-02-02T09:34:10;99300.13;;;-0.57;100.00
59650;BME280;46162;57.568;25.814;2023-02-02T09:36:40;99306.13;;;-0.67;100.00
59650;BME280;46162;57.568;25.814;2023-02-02T09:39:11;99312.34;;;-0.79;100.00
59650;BME280;46162;57.568;25.814;2023-02-02T09:42:12;99316.34;;;-0.73;100.00
59650;BME280;46162;57.568;25.814;2023-02-02T09:45:06;99314.53;;;-0.73;100.00
59650;BME280;46162;57.568;25.814;2023-02-02T09:47:51;99317.66;;;-0.79;100.00
59650;BME280;46162;57.568;25.814;2023-02-02T09:50:38;99316.94;;;-0.70;100.00
59650;BME280;46162;57.568;25.814;2023-02-02T09:53:20;99327.38;;;-0.79;100.00
59650;BME280;46162;57.568;25.814;2023-02-02T09:55:53;99323.38;;;-0.85;100.00
59650;BME280;46162;57.568;25.814;2023-02-02T09:58:27;99329.84;;;-0.89;100.00
59650;BME280;46162;57.568;25.814;2023-02-02T10:01:02;99330.81;;;-0.90;100.00
59650;BME280;46162;57.568;25.814;2023-02-02T10:03:36;99334.72;;;-0.83;100.00
59650;BME280;46162;57.568;25.814;2023-02-02T10:06:13;99338.72;;;-0.77;100.00
59650;BME280;46162;57.568;25.814;2023-02-02T10:08:48;99339.03;;;-0.69;100.00
59650;BME280;46162;57.568;25.814;2023-02-02T10:11:29;99345.16;;;-0.69;100.00
59650;BME280;46162;57.568;25.814;2023-02-02T10:14:04;99349.72;;;-0.71;100.00
59650;BME280;46162;57.568;25.814;2023-02-02T10:16:36;99348.19;;;-0.86;100.00
59650;BME280;46162;57.568;25.814;2023-02-02T10:19:10;99344.47;;;-0.83;100.00
59650;BME280;46162;57.568;25.814;2023-02-02T10:21:43;99347.75;;;-0.80;100.00
59650;BME280;46162;57.568;25.814;2023-02-02T10:24:17;99351.13;;;-0.78;100.00
59650;BME280;46162;57.568;25.814;2023-02-02T10:26:48;99359.91;;;-0.77;100.00
59650;BME280;46162;57.568;25.814;2023-02-02T10:29:29;99358.56;;;-0.83;100.00
59650;BME280;46162;57.568;25.814;2023-02-02T10:32:19;99367.38;;;-0.82;100.00
59650;BME280;46162;57.568;25.814;2023-02-02T10:35:04;99365.28;;;-0.90;100.00
59650;BME280;46162;57.568;25.814;2023-02-02T10:37:45;99374.56;;;-0.84;100.00
59650;BME280;46162;57.568;25.814;2023-02-02T10:40:29;99367.19;;;-0.92;100.00
59650;BME280;46162;57.568;25.814;2023-02-02T10:43:32;99375.59;;;-0.98;100.00
59650;BME280;46162;57.568;25.814;2023-02-02T10:46:21;99374.22;;;-1.04;100.00
59650;BME280;46162;57.568;25.814;2023-02-02T10:49:04;99380.66;;;-0.95;100.00
59650;BME280;46162;57.568;25.814;2023-02-02T10:51:38;99386.63;;;-1.04;100.00
59650;BME280;46162;57.568;25.814;2023-02-02T10:54:21;99380.38;;;-1.03;100.00
59650;BME280;46162;57.568;25.814;2023-02-02T10:56:58;99391.50;;;-0.98;100.00
59650;BME280;46162;57.568;25.814;2023-02-02T10:59:30;99388.09;;;-1.00;100.00
59650;BME280;46162;57.568;25.814;2023-02-02T11:02:01;99385.72;;;-0.92;100.00
59650;BME280;46162;57.568;25.814;2023-02-02T11:04:46;99398.69;;;-1.00;100.00
59650;BME280;46162;57.568;25.814;2023-02-02T11:07:33;99404.00;;;-1.00;100.00
59650;BME280;46162;57.568;25.814;2023-02-02T11:10:03;99396.28;;;-1.03;100.00
59650;BME280;46162;57.568;25.814;2023-02-02T11:12:34;99409.50;;;-1.03;100.00
59650;BME280;46162;57.568;25.814;2023-02-02T11:15:06;99406.22;;;-1.07;100.00
59650;BME280;46162;57.568;25.814;2023-02-02T11:17:38;99415.66;;;-1.03;100.00
59650;BME280;46162;57.568;25.814;2023-02-02T11:20:21;99421.16;;;-0.93;100.00
59650;BME280;46162;57.568;25.814;2023-02-02T11:23:05;99419.88;;;-1.00;100.00
59650;BME280;46162;57.568;25.814;2023-02-02T11:25:36;99426.03;;;-1.00;100.00
59650;BME280;46162;57.568;25.814;2023-02-02T11:28:10;99430.56;;;-1.02;100.00
59650;BME280;46162;57.568;25.814;2023-02-02T11:30:46;99440.34;;;-1.02;100.00
59650;BME280;46162;57.568;25.814;2023-02-02T11:33:26;99439.19;;;-1.11;100.00
59650;BME280;46162;57.568;25.814;2023-02-02T11:35:56;99436.09;;;-1.05;100.00
59650;BME280;46162;57.568;25.814;2023-02-02T11:38:26;99434.63;;;-0.96;100.00
59650;BME280;46162;57.568;25.814;2023-02-02T11:40:56;99448.50;;;-1.05;100.00
59650;BME280;46162;57.568;25.814;2023-02-02T11:43:32;99450.41;;;-1.08;100.00
59650;BME280;46162;57.568;25.814;2023-02-02T11:46:04;99452.31;;;-1.10;100.00
59650;BME280;46162;57.568;25.814;2023-02-02T11:48:37;99453.91;;;-1.07;100.00
59650;BME280;46162;57.568;25.814;2023-02-02T11:51:06;99467.56;;;-1.00;100.00
59650;BME280;46162;57.568;25.814;2023-02-02T11:53:39;99464.19;;;-1.02;100.00
59650;BME280;46162;57.568;25.814;2023-02-02T11:56:17;99469.44;;;-0.90;100.00
59650;BME280;46162;57.568;25.814;2023-02-02T11:58:48;99474.34;;;-0.96;100.00
59650;BME280;46162;57.568;25.814;2023-02-02T12:01:23;99470.84;;;-1.10;100.00
59650;BME280;46162;57.568;25.814;2023-02-02T12:03:54;99477.34;;;-1.14;100.00
59650;BME280;46162;57.568;25.814;2023-02-02T12:06:25;99473.94;;;-1.03;100.00
59650;BME280;46162;57.568;25.814;2023-02-02T12:08:57;99481.97;;;-1.04;100.00
59650;BME280;46162;57.568;25.814;2023-02-02T12:11:36;99478.19;;;-1.13;100.00
59650;BME280;46162;57.568;25.814;2023-02-02T12:14:19;99484.94;;;-1.09;100.00
59650;BME280;46162;57.568;25.814;2023-02-02T12:17:01;99493.00;;;-1.11;100.00
59650;BME280;46162;57.568;25.814;2023-02-02T12:19:50;99492.69;;;-1.06;100.00
59650;BME280;46162;57.568;25.814;2023-02-02T12:22:35;99500.31;;;-1.14;100.00
59650;BME280;46162;57.568;25.814;2023-02-02T12:25:26;99509.31;;;-1.17;100.00
59650;BME280;46162;57.568;25.814;2023-02-02T12:28:10;99503.84;;;-1.14;100.00
59650;BME280;46162;57.568;25.814;2023-02-02T12:30:49;99507.84;;;-1.08;100.00
59650;BME280;46162;57.568;25.814;2023-02-02T12:33:30;99510.38;;;-1.06;100.00
59650;BME280;46162;57.568;25.814;2023-02-02T12:36:24;99515.13;;;-1.12;100.00
59650;BME280;46162;57.568;25.814;2023-02-02T12:39:12;99517.38;;;-1.18;100.00
59650;BME280;46162;57.568;25.814;2023-02-02T12:42:06;99521.81;;;-1.19;100.00
59650;BME280;46162;57.568;25.814;2023-02-02T12:44:47;99520.78;;;-1.16;100.00
59650;BME280;46162;57.568;25.814;2023-02-02T12:47:23;99529.97;;;-1.22;100.00
59650;BME280;46162;57.568;25.814;2023-02-02T12:50:24;99533.38;;;-1.20;100.00
59650;BME280;46162;57.568;25.814;2023-02-02T12:53:21;99537.69;;;-1.19;100.00
59650;BME280;46162;57.568;25.814;2023-02-02T12:56:00;99543.56;;;-1.14;100.00
59650;BME280;46162;57.568;25.814;2023-02-02T12:58:35;99548.09;;;-1.16;100.00
59650;BME280;46162;57.568;25.814;2023-02-02T13:01:12;99550.00;;;-1.18;100.00
59650;BME280;46162;57.568;25.814;2023-02-02T13:04:02;99555.09;;;-1.15;100.00
59650;BME280;46162;57.568;25.814;2023-02-02T13:06:51;99560.38;;;-1.15;100.00
59650;BME280;46162;57.568;25.814;2023-02-02T13:09:47;99561.97;;;-1.12;100.00
59650;BME280;46162;57.568;25.814;2023-02-02T13:12:21;99565.06;;;-1.18;100.00
59650;BME280;46162;57.568;25.814;2023-02-02T13:14:54;99568.84;;;-1.22;100.00
59650;BME280;46162;57.568;25.814;2023-02-02T13:17:26;99570.75;;;-1.12;100.00